Time;durP1;ratioP1;P1;durP2;ratioP2;P2;SDS_P1;SDS_P2;PMS_P1;PMS_P2;Temp;Humidity;BMP_temperature;BMP_pressure;BME280_temperature;BME280_humidity;BME280_pressure;Samples;Min_cycle;Max_cycle;Signal;HPM_P1;HPM_P2
2023/04/19 00:02:27;;;;;;;;;;;;;;;;;;;;;
2023/04/19 00:05:26;;;;;;;;;2.00;2.00;;;;;13.02;76.17;100600.31;146625;666;46014;-81
2023/04/19 00:08:23;;;;;;;;;6.00;4.50;;;;;13.09;76.26;100589.34;146620;578;46012;-78
2023/04/19 00:11:20;;;;;;;;;3.00;3.00;;;;;13.13;75.78;100581.69;146623;605;46010;-76
2023/04/19 00:14:19;;;;;;;;;2.00;1.00;;;;;13.19;75.56;100581.06;146619;701;46016;-76
2023/04/19 00:17:23;;;;;;;;;2.75;2.75;;;;;13.22;74.71;100578.56;146621;624;46010;-76
2023/04/19 00:20:23;;;;;;;;;2.00;2.00;;;;;13.30;75.30;100571.06;146620;603;45017;-77
2023/04/19 00:23:24;;;;;;;;;0.75;0.75;;;;;13.35;75.47;100578.22;146625;596;46010;-78
2023/04/19 00:26:25;;;;;;;;;1.25;1.25;;;;;13.44;74.81;100580.28;146618;591;46016;-77
2023/04/19 00:29:34;;;;;;;;;3.50;2.00;;;;;13.44;75.02;100571.59;146623;578;46021;-77
2023/04/19 00:32:29;;;;;;;;;3.33;2.00;;;;;13.50;75.14;100580.53;146622;611;46016;-76
2023/04/19 00:35:21;;;;;;;;;3.00;3.00;;;;;13.55;74.65;100572.87;146625;677;46020;-76
2023/04/19 00:38:38;;;;;;;;;2.25;1.75;;;;;13.48;73.86;100560.44;146619;585;46016;-80
2023/04/19 00:41:58;;;;;;;;;2.25;2.25;;;;;13.54;74.14;100579.78;146624;591;46010;-81
2023/04/19 00:44:53;;;;;;;;;4.50;3.00;;;;;13.51;74.91;100574.47;146619;566;46016;-81
2023/04/19 00:48:08;;;;;;;;;5.00;5.00;;;;;13.52;74.35;100564.94;146620;602;47010;-80
2023/04/19 00:51:33;;;;;;;;;4.75;3.00;;;;;13.48;74.06;100556.13;146620;607;46016;-79
2023/04/19 00:54:33;;;;;;;;;7.00;7.00;;;;;13.55;74.85;100565.97;146623;679;46020;-85
2023/04/19 00:57:41;;;;;;;;;5.25;5.25;;;;;13.55;75.20;100563.34;146620;700;46016;-86
2023/04/19 01:00:38;;;;;;;;;7.00;4.00;;;;;13.56;77.31;100566.84;146704;569;47014;-84
2023/04/19 01:03:33;;;;;;;;;6.75;4.75;;;;;13.55;76.31;100558.16;146623;564;46012;-76
2023/04/19 01:06:43;;;;;;;;;5.25;5.25;;;;;13.55;76.06;100570.25;146621;613;46021;-77
2023/04/19 01:09:46;;;;;;;;;6.00;5.50;;;;;13.45;75.79;100558.63;146618;564;46016;-77
2023/04/19 01:12:54;;;;;;;;;7.25;7.25;;;;;13.40;76.01;100557.59;146623;707;47019;-75
2023/04/19 01:15:48;;;;;;;;;6.50;6.50;;;;;13.36;76.16;100555.66;146617;564;46914;-74
2023/04/19 01:18:46;;;;;;;;;7.00;6.25;;;;;13.33;76.04;100566.88;146621;631;46020;-73
2023/04/19 01:21:45;;;;;;;;;4.00;4.00;;;;;13.27;76.27;100560.53;146618;690;47014;-74
2023/04/19 01:24:39;;;;;;;;;4.25;4.25;;;;;13.17;76.22;100549.75;146618;634;46020;-75
2023/04/19 01:27:40;;;;;;;;;5.00;4.00;;;;;13.11;76.68;100556.44;146619;723;46016;-75
2023/04/19 01:30:35;;;;;;;;;6.75;5.50;;;;;13.01;76.97;100555.19;146623;618;46010;-76
2023/04/19 01:33:33;;;;;;;;;5.00;4.00;;;;;12.90;77.56;100554.78;146617;693;46914;-78
2023/04/19 01:36:26;;;;;;;;;2.25;2.25;;;;;12.80;77.65;100549.16;146624;588;46021;-76
2023/04/19 01:39:21;;;;;;;;;4.00;3.25;;;;;12.75;77.83;100558.50;146615;676;46014;-76
2023/04/19 01:42:21;;;;;;;;;5.50;5.00;;;;;12.74;77.87;100559.31;146619;564;46021;-77
2023/04/19 01:45:19;;;;;;;;;4.00;4.00;;;;;12.69;78.15;100551.34;146617;704;46016;-81
2023/04/19 01:48:18;;;;;;;;;5.25;4.00;;;;;12.63;78.17;100557.19;146622;690;46014;-75
2023/04/19 01:51:16;;;;;;;;;5.75;3.75;;;;;12.55;77.97;100553.38;146618;601;46016;-77
2023/04/19 01:54:14;;;;;;;;;5.00;4.00;;;;;12.50;77.77;100549.72;146622;588;46014;-77
2023/04/19 01:57:17;;;;;;;;;5.00;5.00;;;;;12.48;78.41;100556.56;146615;705;46014;-77
2023/04/19 02:00:26;;;;;;;;;3.25;3.00;;;;;12.48;77.64;100559.16;146621;569;46020;-75
2023/04/19 02:03:21;;;;;;;;;3.25;3.25;;;;;12.50;78.25;100557.53;146615;625;46914;-77
2023/04/19 02:06:37;;;;;;;;;3.00;3.00;;;;;12.50;77.84;100560.13;146620;577;47010;-74
2023/04/19 02:09:41;;;;;;;;;7.50;4.00;;;;;12.51;78.01;100550.59;146617;603;46016;-77
2023/04/19 02:12:39;;;;;;;;;3.00;2.00;;;;;12.55;78.41;100555.97;146623;682;46021;-75
2023/04/19 02:15:33;;;;;;;;;3.25;3.25;;;;;12.57;78.62;100556.94;146617;600;46016;-74
2023/04/19 02:18:40;;;;;;;;;6.25;3.25;;;;;12.60;79.08;100553.56;146624;644;46010;-74
2023/04/19 02:21:47;;;;;;;;;6.50;6.50;;;;;12.59;77.94;100550.09;146618;631;46014;-74
2023/04/19 02:24:51;;;;;;;;;7.00;6.00;;;;;12.56;78.83;100551.69;146620;609;47014;-75
2023/04/19 02:28:06;;;;;;;;;7.50;6.00;;;;;12.56;78.12;100539.56;146613;618;46017;-77
2023/04/19 02:31:18;;;;;;;;;8.00;6.75;;;;;12.65;78.98;100541.66;146623;583;46014;-76
2023/04/19 02:34:19;;;;;;;;;7.00;6.75;;;;;12.71;80.25;100549.69;146618;566;46013;-77
2023/04/19 02:37:24;;;;;;;;;12.25;10.75;;;;;12.67;80.11;100546.06;146618;658;46020;-78
2023/04/19 02:40:25;;;;;;;;;6.00;6.00;;;;;12.64;79.78;100545.06;146608;612;46016;-78
2023/04/19 02:43:23;;;;;;;;;5.25;4.75;;;;;12.64;79.45;100545.94;146623;713;46010;-78
2023/04/19 02:46:25;;;;;;;;;6.50;6.50;;;;;12.65;79.52;100539.94;146615;672;46016;-74
2023/04/19 02:49:31;;;;;;;;;8.25;6.75;;;;;12.66;78.62;100543.41;146621;573;46021;-77
2023/04/19 02:52:32;;;;;;;;;7.50;5.25;;;;;12.72;78.63;100548.87;146616;565;46014;-76
2023/04/19 02:55:44;;;;;;;;;8.75;7.00;;;;;12.06;78.08;100424.03;146622;634;46020;-76
2023/04/19 02:58:53;;;;;;;;;8.00;6.75;;;;;12.74;78.14;100536.81;146621;736;46012;-75
2023/04/19 03:02:06;;;;;;;;;6.50;5.25;;;;;12.21;77.97;100434.13;146628;683;46029;-75
2023/04/19 03:05:07;;;;;;;;;7.75;7.75;;;;;12.93;78.37;100546.22;146623;634;46017;-75
2023/04/19 03:08:19;;;;;;;;;9.00;7.00;;;;;12.52;77.36;100476.94;146631;577;46010;-76
2023/04/19 03:11:20;;;;;;;;;6.00;5.00;;;;;12.98;78.33;100557.69;146626;595;46016;-76
2023/04/19 03:14:24;;;;;;;;;8.00;6.75;;;;;13.00;77.89;100555.16;146628;579;46014;-77
2023/04/19 03:17:36;;;;;;;;;12.00;8.00;;;;;13.03;78.62;100547.47;146624;593;46012;-77
2023/04/19 03:20:45;;;;;;;;;;;;;;;;;;;;;
2023/04/19 03:23:47;;;;;;;;;7.75;4.75;;;;;13.06;77.74;100552.78;146626;571;46012;-79
2023/04/19 03:26:53;;;;;;;;;6.00;6.00;;;;;13.09;77.29;100548.56;146629;657;46010;-77
2023/04/19 03:29:54;;;;;;;;;7.00;6.75;;;;;13.13;76.92;100544.38;146623;658;46016;-76
2023/04/19 03:32:46;;;;;;;;;2.75;2.75;;;;;13.16;77.07;100545.37;146629;645;46010;-76
2023/04/19 03:35:44;;;;;;;;;4.00;3.75;;;;;13.21;76.84;100547.25;146624;616;46012;-78
2023/04/19 03:38:47;;;;;;;;;5.00;5.00;;;;;13.22;76.59;100549.94;146630;624;46010;-79
2023/04/19 03:41:46;;;;;;;;;6.50;4.50;;;;;13.24;76.64;100548.28;146624;574;46017;-79
2023/04/19 03:44:42;;;;;;;;;7.25;7.00;;;;;13.26;76.37;100558.78;146630;563;46010;-75
2023/04/19 03:47:46;;;;;;;;;8.00;6.00;;;;;13.29;76.04;100562.37;146624;596;46016;-75
2023/04/19 03:50:37;;;;;;;;;6.25;4.50;;;;;13.32;76.03;100559.88;146632;577;45021;-77
2023/04/19 03:53:32;;;;;;;;;5.50;5.50;;;;;13.33;75.74;100556.47;146625;635;47014;-77
2023/04/19 03:56:34;;;;;;;;;6.75;6.50;;;;;13.35;75.88;100561.72;146628;593;46010;-77
2023/04/19 03:59:40;;;;;;;;;9.50;8.25;;;;;13.36;76.02;100559.19;146619;617;46016;-77
2023/04/19 04:02:38;;;;;;;;;11.25;9.25;;;;;13.35;76.53;100559.13;146621;661;46010;-77
2023/04/19 04:05:33;;;;;;;;;7.00;7.00;;;;;13.30;77.01;100552.84;146616;721;46016;-77
2023/04/19 04:08:25;;;;;;;;;6.50;3.75;;;;;13.23;77.56;100551.69;146619;633;46020;-77
2023/04/19 04:11:56;;;;;;;;;;;;;;;;;;;;;
2023/04/19 04:15:00;;;;;;;;;4.00;3.75;;;;;13.09;76.97;100547.69;146622;566;46020;-77
2023/04/19 04:17:58;;;;;;;;;2.25;2.25;;;;;13.08;77.66;100557.22;146620;578;46016;-76
2023/04/19 04:20:57;;;;;;;;;4.50;4.00;;;;;13.09;77.37;100547.69;146621;569;46020;-78
2023/04/19 04:24:19;;;;;;;;;3.25;3.25;;;;;13.12;77.77;100558.22;146617;657;47012;-76
2023/04/19 04:27:35;;;;;;;;;3.00;2.00;;;;;13.16;77.87;100549.69;146623;669;46020;-76
2023/04/19 04:30:30;;;;;;;;;5.75;5.00;;;;;13.22;78.29;100556.84;146617;617;46012;-78
2023/04/19 04:33:46;;;;;;;;;6.00;6.00;;;;;13.26;77.81;100551.84;146622;666;46011;-76
2023/04/19 04:37:07;;;;;;;;;6.00;4.25;;;;;13.32;77.72;100561.59;146615;622;47014;-76
2023/04/19 04:40:07;;;;;;;;;7.50;6.75;;;;;13.33;77.91;100553.88;146622;697;46011;-76
2023/04/19 04:43:07;;;;;;;;;8.50;6.00;;;;;13.41;77.17;100556.75;146618;634;46017;-77
2023/04/19 04:45:56;;;;;;;;;9.50;6.50;;;;;13.44;80.25;100559.47;146703;565;46022;-78
2023/04/19 04:48:56;;;;;;;;;7.25;7.00;;;;;13.47;78.38;100556.09;146619;720;46016;-78
2023/04/19 04:52:10;;;;;;;;;7.50;6.50;;;;;13.30;77.67;100532.91;146622;663;47020;-79
2023/04/19 04:55:26;;;;;;;;;9.25;8.00;;;;;13.47;78.16;100561.28;146619;602;46016;-77
2023/04/19 04:58:18;;;;;;;;;13.25;10.75;;;;;13.49;78.21;100562.22;146621;664;46011;-80
2023/04/19 05:01:23;;;;;;;;;6.75;6.75;;;;;13.55;78.29;100560.75;146613;569;46016;-76
2023/04/19 05:04:26;;;;;;;;;13.75;12.50;;;;;13.66;78.15;100566.34;146623;616;46011;-75
2023/04/19 05:07:23;;;;;;;;;17.00;13.75;;;;;13.77;78.02;100564.09;146611;596;46012;-77
2023/04/19 05:10:21;;;;;;;;;13.25;12.25;;;;;13.84;77.61;100566.13;146614;569;46010;-76
2023/04/19 05:13:16;;;;;;;;;24.00;18.25;;;;;13.91;77.06;100564.59;146612;590;46012;-78
2023/04/19 05:16:18;;;;;;;;;21.75;17.25;;;;;13.97;76.68;100567.44;146612;565;46020;-75
2023/04/19 05:19:30;;;;;;;;;16.50;14.50;;;;;13.45;76.60;100477.87;146613;597;46017;-77
2023/04/19 05:22:26;;;;;;;;;15.00;14.00;;;;;14.12;76.97;100572.28;146615;619;46014;-78
2023/04/19 05:25:23;;;;;;;;;14.25;13.00;;;;;14.21;77.00;100570.88;146612;694;46016;-77
2023/04/19 05:28:18;;;;;;;;;14.00;13.00;;;;;14.29;76.06;100576.34;146617;572;46011;-75
2023/04/19 05:31:19;;;;;;;;;13.50;11.25;;;;;14.32;74.94;100579.06;146612;606;46012;-76
2023/04/19 05:34:19;;;;;;;;;13.50;13.50;;;;;14.37;75.22;100571.41;146614;614;46011;-77
2023/04/19 05:37:20;;;;;;;;;10.25;10.25;;;;;14.45;75.04;100582.97;146613;595;46016;-76
2023/04/19 05:40:19;;;;;;;;;12.50;9.50;;;;;14.49;75.22;100587.47;146615;577;46020;-74
2023/04/19 05:43:21;;;;;;;;;10.00;10.00;;;;;14.52;74.60;100588.47;146617;608;46016;-74
2023/04/19 05:46:40;;;;;;;;;9.25;9.25;;;;;14.59;74.58;100584.34;146636;660;46010;-75
2023/04/19 05:49:34;;;;;;;;;11.00;10.00;;;;;14.69;74.74;100588.12;146637;694;46012;-75
2023/04/19 05:52:39;;;;;;;;;11.25;8.50;;;;;14.77;74.10;100589.28;146638;582;45010;-77
2023/04/19 05:55:37;;;;;;;;;11.00;9.50;;;;;14.85;73.54;100585.19;146641;563;45032;-77
2023/04/19 05:58:33;;;;;;;;;12.50;10.00;;;;;14.93;73.50;100588.03;146642;572;46010;-82
2023/04/19 06:01:34;;;;;;;;;10.75;8.00;;;;;15.01;73.17;100591.75;146633;653;45016;-80
2023/04/19 06:04:34;;;;;;;;;9.00;7.75;;;;;15.08;72.42;100596.34;146643;579;46010;-75
2023/04/19 06:07:48;;;;;;;;;12.00;10.50;;;;;15.08;72.60;100585.91;146640;586;46916;-75
2023/04/19 06:10:48;;;;;;;;;12.25;11.75;;;;;15.19;72.16;100599.28;146634;576;46010;-74
2023/04/19 06:14:07;;;;;;;;;;;;;;;;;;;;;
2023/04/19 06:17:10;;;;;;;;;8.75;8.00;;;;;15.32;71.43;100595.31;146636;565;45014;-74
2023/04/19 06:20:23;;;;;;;;;12.00;10.00;;;;;15.36;69.80;100591.97;146643;571;45016;-78
2023/04/19 06:23:17;;;;;;;;;10.75;10.00;;;;;15.39;70.59;100602.47;146637;587;45020;-79
2023/04/19 06:26:16;;;;;;;;;18.00;15.00;;;;;15.39;70.54;100595.56;146631;639;45916;-79
2023/04/19 06:29:10;;;;;;;;;14.25;13.75;;;;;15.42;70.36;100599.97;146635;580;45010;-77
2023/04/19 06:32:16;;;;;;;;;17.50;15.50;;;;;15.47;70.44;100595.78;146633;585;45016;-79
2023/04/19 06:35:13;;;;;;;;;14.25;12.75;;;;;15.53;70.17;100595.94;146637;580;45032;-78
2023/04/19 06:38:10;;;;;;;;;16.00;13.25;;;;;15.58;70.57;100596.97;146636;612;45012;-78
2023/04/19 06:41:02;;;;;;;;;15.25;13.25;;;;;15.68;70.37;100600.78;146639;609;45010;-78
2023/04/19 06:44:06;;;;;;;;;10.00;9.00;;;;;15.93;72.02;100602.34;146630;570;46014;-82
2023/04/19 06:47:11;;;;;;;;;3.50;3.50;;;;;16.33;71.26;100599.06;146621;577;46020;-81
2023/04/19 06:50:14;;;;;;;;;7.50;7.00;;;;;16.80;69.15;100608.97;146617;616;46017;-82
2023/04/19 06:53:26;;;;;;;;;10.00;9.00;;;;;17.23;67.03;100609.97;146623;584;47021;-81
2023/04/19 06:56:23;;;;;;;;;11.75;9.75;;;;;17.52;66.20;100606.25;146702;569;46012;-81
2023/04/19 06:59:38;;;;;;;;;;;;;;;;;;;;;
2023/04/19 07:02:36;;;;;;;;;13.25;9.50;;;;;18.05;64.51;100607.31;146623;662;47015;-82
2023/04/19 07:05:51;;;;;;;;;47.25;39.25;;;;;18.32;64.59;100609.59;146620;620;46012;-79
2023/04/19 07:09:01;;;;;;;;;34.75;30.75;;;;;18.53;63.78;100609.94;146625;564;46010;-81
2023/04/19 07:12:02;;;;;;;;;32.25;29.50;;;;;18.73;62.11;100605.06;146620;564;46012;-81
2023/04/19 07:15:16;;;;;;;;;;;;;;;;;;;;;
2023/04/19 07:18:20;;;;;;;;;;;;;;;;;;;;;
2023/04/19 07:21:27;;;;;;;;;;;;;;;;;;;;;
2023/04/19 07:24:22;;;;;;;;;18.00;16.25;;;;;19.63;58.82;100587.06;146618;693;46018;-76
2023/04/19 07:27:26;;;;;;;;;14.00;12.25;;;;;19.88;58.65;100603.16;146620;574;47010;-80
2023/04/19 07:30:22;;;;;;;;;11.75;10.00;;;;;20.01;57.32;100602.44;146619;651;47012;-79
2023/04/19 07:33:19;;;;;;;;;14.00;13.00;;;;;20.00;57.56;100609.44;146620;709;46021;-76
2023/04/19 07:36:17;;;;;;;;;10.50;8.75;;;;;20.04;58.82;100607.72;146619;648;46917;-77
2023/04/19 07:39:12;;;;;;;;;8.75;7.25;;;;;20.11;58.40;100608.66;146618;581;48021;-76
2023/04/19 07:42:05;;;;;;;;;9.75;9.75;;;;;20.26;56.23;100606.19;146618;631;47012;-76
2023/04/19 07:45:13;;;;;;;;;6.00;6.00;;;;;20.37;58.18;100603.66;146623;566;46012;-77
2023/04/19 07:48:05;;;;;;;;;6.33;6.00;;;;;20.51;56.44;100613.47;146622;623;46013;-75
2023/04/19 07:51:12;;;;;;;;;6.00;6.00;;;;;20.70;57.42;100613.66;146623;602;46020;-75
2023/04/19 07:54:32;;;;;;;;;8.50;7.00;;;;;20.38;55.69;100516.78;146619;579;47014;-76
2023/04/19 07:57:34;;;;;;;;;6.33;5.67;;;;;21.00;54.45;100615.63;146624;595;46010;-74
2023/04/19 08:00:35;;;;;;;;;7.00;6.00;;;;;21.13;54.64;100606.94;146616;679;47014;-76
2023/04/19 08:03:43;;;;;;;;;5.67;4.67;;;;;21.30;54.62;100611.41;146623;614;47020;-75
2023/04/19 08:06:51;;;;;;;;;6.00;6.00;;;;;21.50;54.43;100609.81;146621;655;46016;-77
2023/04/19 08:09:45;;;;;;;;;5.00;5.00;;;;;21.42;54.06;100601.84;146622;637;46010;-79
2023/04/19 08:12:43;;;;;;;;;4.33;4.33;;;;;21.34;52.55;100610.53;146620;582;46016;-76
2023/04/19 08:15:39;;;;;;;;;4.33;2.67;;;;;21.18;54.93;100612.22;146624;612;46010;-76
2023/04/19 08:18:54;;;;;;;;;8.00;7.00;;;;;20.92;55.44;100615.56;146619;649;46032;-76
2023/04/19 08:21:48;;;;;;;;;0.00;0.00;;;;;20.62;54.28;100605.66;146620;586;46020;-76
2023/04/19 08:24:44;;;;;;;;;7.00;6.00;;;;;20.64;57.66;100613.59;146622;704;46024;-75
2023/04/19 08:27:38;;;;;;;;;6.00;5.00;;;;;20.73;55.67;100606.63;146625;604;46020;-73
2023/04/19 08:30:50;;;;;;;;;5.00;5.00;;;;;20.74;57.36;100605.75;146621;632;46016;-77
2023/04/19 08:33:55;;;;;;;;;7.67;7.00;;;;;20.62;54.82;100604.78;146621;606;46020;-76
2023/04/19 08:36:58;;;;;;;;;7.00;7.00;;;;;20.39;54.20;100601.94;146621;646;46014;-76
2023/04/19 08:39:56;;;;;;;;;4.33;4.33;;;;;20.28;56.94;100602.72;146622;600;47012;-75
2023/04/19 08:42:50;;;;;;;;;4.00;4.00;;;;;19.82;53.82;100509.25;146619;573;46919;-77
2023/04/19 08:46:09;;;;;;;;;8.00;7.00;;;;;20.38;54.60;100600.16;146624;569;46010;-76
2023/04/19 08:49:28;;;;;;;;;5.67;5.67;;;;;20.25;56.05;100584.25;146619;563;47012;-78
2023/04/19 08:52:30;;;;;;;;;7.33;7.00;;;;;20.20;55.55;100599.09;146625;591;46010;-75
2023/04/19 08:55:44;;;;;;;;;6.00;6.00;;;;;20.27;56.96;100593.03;146620;592;47012;-76
2023/04/19 08:58:46;;;;;;;;;5.33;5.33;;;;;20.43;56.38;100590.53;146625;599;46010;-76
2023/04/19 09:01:42;;;;;;;;;7.67;6.33;;;;;20.52;54.33;100569.59;146621;604;47012;-77
2023/04/19 09:04:31;;;;;;;;;11.00;9.00;;;;;20.38;53.33;100581.75;146709;580;48014;-76
2023/04/19 09:07:50;;;;;;;;;9.33;8.67;;;;;20.03;52.80;100561.19;146621;617;46017;-76
2023/04/19 09:11:05;;;;;;;;;5.00;5.00;;;;;19.86;53.88;100568.06;146630;590;47020;-75
2023/04/19 09:14:23;;;;;;;;;8.00;6.00;;;;;19.72;57.60;100578.41;146626;566;47012;-74
2023/04/19 09:17:48;;;;;;;;;;;;;;;;;;;;;
2023/04/19 09:21:12;;;;;;;;;9.33;7.33;;;;;19.67;56.97;100570.47;146624;633;46016;-78
2023/04/19 09:24:19;;;;;;;;;7.33;5.00;;;;;19.71;55.84;100574.88;146631;579;46010;-76
2023/04/19 09:27:14;;;;;;;;;5.33;5.00;;;;;19.95;54.25;100568.16;146627;607;46012;-77
2023/04/19 09:30:22;;;;;;;;;3.00;3.00;;;;;20.13;53.37;100572.72;146631;575;47010;-76
2023/04/19 09:33:37;;;;;;;;;7.00;6.00;;;;;20.26;53.15;100569.34;146623;580;46014;-77
2023/04/19 09:36:40;;;;;;;;;4.00;4.00;;;;;20.39;55.28;100565.94;146632;588;46013;-78
2023/04/19 09:40:05;;;;;;;;;5.00;5.00;;;;;20.50;54.40;100564.28;146624;617;46016;-76
2023/04/19 09:43:23;;;;;;;;;;;;;;;;;;;;;
2023/04/19 09:46:55;;;;;;;;;;;;;;;;;;;;;
2023/04/19 09:50:05;;;;;;;;;4.33;4.33;;;;;20.69;56.13;100549.53;146629;596;46020;-77
2023/04/19 09:53:19;;;;;;;;;5.00;5.00;;;;;21.04;55.91;100559.41;146626;577;46017;-75
2023/04/19 09:56:23;;;;;;;;;6.67;3.33;;;;;21.18;53.30;100551.56;146631;593;47010;-75
2023/04/19 09:59:21;;;;;;;;;5.33;4.33;;;;;21.09;53.68;100549.78;146626;581;46926;-75
2023/04/19 10:02:28;;;;;;;;;4.00;3.33;;;;;21.05;52.89;100548.00;146631;564;46020;-75
2023/04/19 10:05:22;;;;;;;;;6.00;4.67;;;;;21.14;52.04;100548.03;146618;575;46016;-75
2023/04/19 10:08:34;;;;;;;;;3.75;3.75;;;;;21.13;50.05;100553.31;146704;569;45022;-80
2023/04/19 10:11:41;;;;;;;;;5.50;5.00;;;;;21.04;50.86;100556.78;146618;693;46014;-78
2023/04/19 10:14:47;;;;;;;;;4.33;3.67;;;;;20.97;49.97;100549.72;146624;619;46010;-76
2023/04/19 10:17:54;;;;;;;;;;;;;;;;;;;;;
2023/04/19 10:21:14;;;;;;;;;6.00;4.67;;;;;21.04;54.08;100545.34;146622;583;46010;-75
2023/04/19 10:24:42;;;;;;;;;2.00;1.00;;;;;21.17;54.54;100547.19;146618;659;46012;-77
2023/04/19 10:27:59;;;;;;;;;4.33;4.00;;;;;21.34;53.89;100532.34;146624;578;46023;-76
2023/04/19 10:31:09;;;;;;;;;5.33;5.33;;;;;21.53;54.34;100525.41;146617;569;46016;-77
2023/04/19 10:34:14;;;;;;;;;7.67;7.00;;;;;21.42;51.65;100537.66;146623;573;46010;-77
2023/04/19 10:37:15;;;;;;;;;8.00;5.75;;;;;21.08;55.90;100532.19;146620;569;46012;-80
2023/04/19 10:40:18;;;;;;;;;6.00;6.00;;;;;20.51;55.91;100531.84;146624;611;47018;-79
2023/04/19 10:43:42;;;;;;;;;8.33;7.00;;;;;19.51;59.67;100508.88;146621;606;47012;-80
2023/04/19 10:46:44;;;;;;;;;6.00;5.00;;;;;19.08;61.38;100528.50;146620;613;46020;-80
2023/04/19 10:49:57;;;;;;;;;7.00;6.00;;;;;18.74;62.58;100519.25;146619;664;46017;-80
2023/04/19 10:52:51;;;;;;;;;6.00;5.00;;;;;18.67;64.12;100520.88;146621;563;47010;-80
2023/04/19 10:55:58;;;;;;;;;8.00;5.33;;;;;18.86;64.18;100520.31;146619;601;46013;-76
2023/04/19 10:59:27;;;;;;;;;7.00;5.67;;;;;18.61;63.31;100421.88;146623;651;46029;-79
2023/04/19 11:02:46;;;;;;;;;8.25;6.75;;;;;19.57;58.31;100502.81;146618;594;46015;-78
2023/04/19 11:06:25;;;;;;;;;5.67;3.33;;;;;19.75;59.11;100499.50;146619;599;47010;-79
2023/04/19 11:09:48;;;;;;;;;5.00;5.00;;;;;20.04;55.25;100507.72;146617;569;47012;-77
2023/04/19 11:12:55;;;;;;;;;6.00;5.00;;;;;20.09;56.68;100511.25;146623;570;46021;-80
2023/04/19 11:15:54;;;;;;;;;7.00;7.00;;;;;20.03;57.35;100512.09;146617;625;46915;-78
2023/04/19 11:18:59;;;;;;;;;6.67;5.67;;;;;19.86;54.96;100510.16;146623;625;46011;-78
2023/04/19 11:22:16;;;;;;;;;4.33;4.33;;;;;19.55;57.77;100509.81;146619;586;46016;-79
2023/04/19 11:25:34;;;;;;;;;5.00;5.00;;;;;18.90;57.91;100431.91;146624;564;46012;-77
2023/04/19 11:28:28;;;;;;;;;58.75;45.25;;;;;19.30;56.41;100527.03;146615;586;46016;-78
2023/04/19 11:31:27;;;;;;;;;108.67;96.67;;;;;19.18;56.65;100521.63;146616;598;46020;-76
2023/04/19 11:34:20;;;;;;;;;62.25;46.25;;;;;19.02;56.75;100524.03;146615;664;46016;-78
2023/04/19 11:37:45;;;;;;;;;58.25;44.75;;;;;18.88;59.22;100523.88;146614;566;46020;-78
2023/04/19 11:40:50;;;;;;;;;42.00;33.00;;;;;18.86;56.39;100527.31;146610;591;46017;-77
2023/04/19 11:43:56;;;;;;;;;36.25;30.00;;;;;18.81;57.18;100524.63;146611;592;46010;-77
2023/04/19 11:47:09;;;;;;;;;54.25;42.00;;;;;18.45;57.68;100462.78;146610;645;47014;-78
2023/04/19 11:50:59;;;;;;;;;22.50;21.25;;;;;18.84;58.38;100535.16;146613;630;46023;-78
2023/04/19 11:54:07;;;;;;;;;7.75;7.00;;;;;18.93;56.02;100524.78;146612;628;47012;-79
2023/04/19 11:57:23;;;;;;;;;14.00;10.75;;;;;19.05;58.22;100521.44;146622;689;46010;-77
2023/04/19 12:00:45;;;;;;;;;11.25;9.50;;;;;18.69;55.55;100419.34;146708;566;46015;-77
2023/04/19 12:04:02;;;;;;;;;6.33;6.33;;;;;19.46;55.87;100518.47;146625;677;46943;-78
2023/04/19 12:07:10;;;;;;;;;5.00;5.00;;;;;19.62;55.37;100507.28;146631;655;46010;-78
2023/04/19 12:10:25;;;;;;;;;9.00;6.67;;;;;19.75;55.83;100504.78;146627;591;46016;-77
2023/04/19 12:13:55;;;;;;;;;8.00;5.00;;;;;19.81;55.26;100491.69;146626;575;47008;-76
2023/04/19 12:17:08;;;;;;;;;9.33;7.00;;;;;19.99;55.65;100494.50;146625;613;46028;-78
2023/04/19 12:20:11;;;;;;;;;7.67;6.00;;;;;20.12;53.45;100479.69;146633;657;46010;-77
2023/04/19 12:23:26;;;;;;;;;;;;;;;;;;;;;
2023/04/19 12:27:03;;;;;;;;;9.25;8.50;;;;;20.53;55.37;100472.16;146625;613;46010;-77
2023/04/19 12:29:58;;;;;;;;;5.00;5.00;;;;;20.81;51.68;100463.50;146621;648;46016;-76
2023/04/19 12:32:54;;;;;;;;;5.67;4.67;;;;;20.55;51.92;100366.78;146631;617;46020;-80
2023/04/19 12:36:15;;;;;;;;;6.50;5.00;;;;;21.26;52.39;100451.41;146622;578;46018;-77
2023/04/19 12:39:12;;;;;;;;;3.67;3.00;;;;;21.34;51.71;100449.66;146633;639;46010;-77
2023/04/19 12:42:06;;;;;;;;;5.00;5.00;;;;;21.29;50.59;100440.87;146625;624;46012;-76
2023/04/19 12:45:26;;;;;;;;;4.50;4.00;;;;;21.27;51.69;100443.50;146630;586;46010;-78
2023/04/19 12:48:36;;;;;;;;;8.50;7.00;;;;;21.25;51.97;100450.53;146625;671;46916;-78
2023/04/19 12:51:41;;;;;;;;;2.00;2.00;;;;;21.26;52.02;100446.16;146631;576;46020;-79
2023/04/19 12:54:42;;;;;;;;;6.00;5.00;;;;;21.28;49.91;100453.19;146623;577;46037;-75
2023/04/19 12:57:48;;;;;;;;;3.67;3.67;;;;;21.22;52.01;100445.25;146628;610;46020;-76
2023/04/19 13:00:56;;;;;;;;;7.67;5.67;;;;;21.12;51.29;100448.72;146624;571;46016;-75
2023/04/19 13:03:52;;;;;;;;;3.00;3.00;;;;;21.05;49.91;100452.22;146632;570;46010;-79
2023/04/19 13:07:09;;;;;;;;;6.67;5.00;;;;;21.00;50.33;100462.75;146620;614;47015;-78
2023/04/19 13:10:11;;;;;;;;;5.00;4.00;;;;;21.00;50.17;100457.47;146629;573;46021;-78
2023/04/19 13:13:13;;;;;;;;;4.67;4.33;;;;;20.99;51.53;100451.28;146622;618;46016;-77
2023/04/19 13:16:21;;;;;;;;;7.67;5.67;;;;;20.99;51.98;100453.06;146632;569;46010;-78
2023/04/19 13:19:34;;;;;;;;;7.00;7.00;;;;;20.94;49.59;100454.81;146625;569;47012;-77
2023/04/19 13:22:38;;;;;;;;;6.00;5.00;;;;;20.87;52.00;100458.28;146629;570;46021;-79
2023/04/19 13:25:38;;;;;;;;;4.67;4.00;;;;;20.67;50.56;100466.09;146626;599;46012;-77
2023/04/19 13:28:29;;;;;;;;;4.00;4.00;;;;;20.42;49.88;100465.00;146625;585;46019;-76
2023/04/19 13:31:36;;;;;;;;;5.67;4.33;;;;;20.24;50.39;100477.16;146625;600;46012;-77
2023/04/19 13:34:52;;;;;;;;;10.25;9.50;;;;;19.57;53.39;100387.09;146627;620;46010;-77
2023/04/19 13:38:00;;;;;;;;;6.00;6.00;;;;;19.90;53.32;100472.47;146625;636;46016;-78
2023/04/19 13:41:01;;;;;;;;;6.67;6.67;;;;;19.76;55.43;100490.78;146628;657;46020;-77
2023/04/19 13:43:59;;;;;;;;;4.67;4.67;;;;;19.60;56.36;100494.97;146623;639;46015;-76
2023/04/19 13:46:51;;;;;;;;;4.00;2.00;;;;;19.44;57.05;100493.00;146627;656;46014;-77
2023/04/19 13:50:05;;;;;;;;;3.67;3.67;;;;;19.30;58.75;100503.38;146626;646;46016;-77
2023/04/19 13:53:17;;;;;;;;;2.33;2.00;;;;;19.14;58.09;100505.81;146630;611;45021;-79
2023/04/19 13:56:21;;;;;;;;;3.00;3.00;;;;;19.00;59.79;100506.47;146624;570;46016;-77
2023/04/19 13:59:21;;;;;;;;;3.33;2.67;;;;;18.90;60.64;100510.72;146624;673;46021;-79
2023/04/19 14:02:21;;;;;;;;;2.33;1.67;;;;;18.75;60.78;100516.62;146622;646;46016;-77
2023/04/19 14:05:19;;;;;;;;;7.00;5.00;;;;;18.59;62.00;100517.25;146623;636;46010;-78
2023/04/19 14:08:15;;;;;;;;;8.00;6.67;;;;;18.54;61.04;100519.81;146621;605;46033;-76
2023/04/19 14:11:08;;;;;;;;;8.67;6.33;;;;;18.47;60.16;100525.81;146622;588;46010;-78
2023/04/19 14:14:05;;;;;;;;;2.67;2.67;;;;;18.36;60.64;100527.41;146619;565;46017;-78
2023/04/19 14:17:09;;;;;;;;;3.00;2.33;;;;;18.24;60.99;100533.31;146620;606;46020;-77
2023/04/19 14:20:02;;;;;;;;;4.67;4.67;;;;;18.19;62.16;100533.25;146621;684;46012;-77
2023/04/19 14:22:59;;;;;;;;;4.00;3.33;;;;;18.18;62.63;100538.47;146624;578;46014;-78
2023/04/19 14:26:20;;;;;;;;;4.67;4.67;;;;;18.21;61.28;100536.75;146620;564;46016;-77
2023/04/19 14:29:25;;;;;;;;;4.00;3.33;;;;;18.24;60.91;100533.31;146621;579;46020;-76
2023/04/19 14:32:19;;;;;;;;;8.00;8.00;;;;;18.25;60.44;100537.69;146618;611;46913;-78
2023/04/19 14:35:51;;;;;;;;;5.00;4.00;;;;;18.26;59.53;100542.13;146621;564;46010;-77
2023/04/19 14:38:52;;;;;;;;;9.67;6.00;;;;;18.21;58.60;100547.25;146618;577;46016;-78